createdAt,value
2018-06-10T00:00:00.260Z,16.50
2018-06-10T00:02:27.461Z,16.40
2018-06-10T00:04:54.688Z,16.40
2018-06-10T00:07:21.915Z,16.30
2018-06-10T00:09:49.133Z,16.30
2018-06-10T00:12:16.360Z,16.40
2018-06-10T00:14:43.565Z,16.40
2018-06-10T00:17:10.772Z,16.40
2018-06-10T00:19:37.968Z,16.50
2018-06-10T00:22:05.241Z,16.40
2018-06-10T00:24:32.477Z,16.40
2018-06-10T00:26:59.761Z,16.30
2018-06-10T00:29:26.984Z,16.30
2018-06-10T00:31:54.192Z,16.30
2018-06-10T00:34:21.401Z,16.20
2018-06-10T00:36:48.625Z,16.20
2018-06-10T00:39:15.821Z,16.20
2018-06-10T00:41:43.024Z,16.20
2018-06-10T00:44:10.226Z,16.10
2018-06-10T00:46:37.444Z,16.20
2018-06-10T00:49:04.670Z,16.10
2018-06-10T00:53:59.107Z,16.10
2018-06-10T00:56:38.121Z,16.00
2018-06-10T00:59:05.315Z,16.10
2018-06-10T01:01:32.517Z,16.20
2018-06-10T01:03:59.724Z,16.20
2018-06-10T01:06:26.938Z,16.20
2018-06-10T01:08:54.137Z,16.20
2018-06-10T01:11:21.358Z,16.10
2018-06-10T01:13:48.622Z,16.10
2018-06-10T01:16:15.853Z,16.10
2018-06-10T01:18:43.063Z,16.10
2018-06-10T01:21:10.272Z,16.10
2018-06-10T01:23:37.496Z,16.10
2018-06-10T01:26:04.723Z,16.10
2018-06-10T01:28:31.945Z,16.10
2018-06-10T01:30:59.157Z,16.20
2018-06-10T01:33:26.655Z,16.20
2018-06-10T01:35:53.872Z,16.10
2018-06-10T01:38:21.090Z,16.10
2018-06-10T01:40:48.313Z,16.10
2018-06-10T01:43:15.533Z,16.10
2018-06-10T01:45:42.773Z,16.10
2018-06-10T01:48:10.381Z,16.10
2018-06-10T01:50:37.596Z,16.10
2018-06-10T01:53:04.825Z,16.00
2018-06-10T01:55:32.044Z,16.00
2018-06-10T01:57:59.264Z,15.90
2018-06-10T02:00:26.472Z,15.90
2018-06-10T02:02:53.694Z,15.90
2018-06-10T02:05:21.032Z,15.90
2018-06-10T02:07:48.249Z,15.90
2018-06-10T02:10:15.464Z,15.80
2018-06-10T02:12:42.696Z,15.80
2018-06-10T02:15:09.934Z,15.90
2018-06-10T02:17:37.938Z,15.80
2018-06-10T02:20:05.184Z,15.90
2018-06-10T02:22:32.406Z,15.80
2018-06-10T02:24:59.620Z,15.80
2018-06-10T02:27:26.852Z,15.80
2018-06-10T02:29:54.069Z,15.80
2018-06-10T02:32:21.280Z,15.80
2018-06-10T02:34:48.506Z,15.80
2018-06-10T02:37:15.761Z,15.80
2018-06-10T02:39:42.980Z,15.70
2018-06-10T02:42:10.185Z,15.70
2018-06-10T02:44:37.405Z,15.70
2018-06-10T02:47:04.660Z,15.70
2018-06-10T02:49:31.881Z,15.70
2018-06-10T02:51:59.100Z,15.70
2018-06-10T02:54:26.316Z,15.80
2018-06-10T02:56:53.631Z,15.80
2018-06-10T02:59:20.848Z,15.90
2018-06-10T03:01:48.066Z,16.00
2018-06-10T03:04:15.283Z,16.00
2018-06-10T03:06:42.506Z,15.90
2018-06-10T03:09:09.725Z,15.90
2018-06-10T03:11:36.934Z,15.90
2018-06-10T03:14:04.192Z,15.80
2018-06-10T03:16:31.430Z,15.80
2018-06-10T03:18:58.651Z,15.80
2018-06-10T03:21:25.869Z,15.90
2018-06-10T03:23:53.085Z,15.90
2018-06-10T03:26:20.301Z,15.90
2018-06-10T03:28:47.546Z,16.00
2018-06-10T03:31:14.769Z,15.90
2018-06-10T03:33:41.977Z,16.00
2018-06-10T03:36:09.220Z,16.10
2018-06-10T03:38:36.425Z,16.10
2018-06-10T03:41:03.644Z,16.10
2018-06-10T03:43:30.869Z,16.20
2018-06-10T03:45:58.093Z,16.20
2018-06-10T03:48:25.309Z,16.20
2018-06-10T03:50:52.533Z,16.20
2018-06-10T03:53:19.744Z,16.20
2018-06-10T03:55:46.970Z,16.20
2018-06-10T03:58:14.189Z,16.30
2018-06-10T04:00:41.412Z,16.30
2018-06-10T04:03:08.625Z,16.30
2018-06-10T04:05:35.840Z,16.30
2018-06-10T04:08:03.069Z,16.30
2018-06-10T04:10:30.305Z,16.40
2018-06-10T04:12:57.546Z,16.50
2018-06-10T04:15:24.768Z,16.50
2018-06-10T04:17:52.161Z,16.60
2018-06-10T04:20:19.381Z,16.60
2018-06-10T04:22:46.596Z,16.70
2018-06-10T04:25:13.809Z,16.80
2018-06-10T04:27:41.026Z,16.80
2018-06-10T04:30:08.239Z,16.80
2018-06-10T04:32:35.457Z,16.90
2018-06-10T04:35:02.682Z,16.90
2018-06-10T04:37:29.904Z,17.00
2018-06-10T04:39:57.157Z,17.10
2018-06-10T04:42:24.413Z,17.10
2018-06-10T04:44:51.629Z,17.10
2018-06-10T04:47:18.857Z,17.10
2018-06-10T04:49:46.062Z,17.20
2018-06-10T04:52:13.286Z,17.30
2018-06-10T04:54:41.789Z,17.30
2018-06-10T04:59:36.316Z,17.40
2018-06-10T05:02:03.538Z,17.50
2018-06-10T05:04:30.750Z,17.50
2018-06-10T05:06:57.957Z,17.60
2018-06-10T05:09:25.169Z,17.70
2018-06-10T05:14:19.588Z,17.70
2018-06-10T05:16:46.821Z,17.80
2018-06-10T05:19:14.030Z,17.80
2018-06-10T05:21:41.240Z,17.90
2018-06-10T05:24:08.457Z,17.90
2018-06-10T05:26:35.666Z,17.90
2018-06-10T05:29:02.954Z,18.10
2018-06-10T05:31:30.161Z,18.20
2018-06-10T05:33:57.402Z,18.30
2018-06-10T05:36:24.621Z,18.40
2018-06-10T05:38:51.840Z,18.50
2018-06-10T05:41:19.065Z,18.50
2018-06-10T05:43:46.273Z,18.60
2018-06-10T05:46:16.349Z,18.60
2018-06-10T05:48:43.588Z,18.60
2018-06-10T05:51:10.821Z,18.60
2018-06-10T05:53:38.131Z,18.70
2018-06-10T05:56:05.350Z,18.80
2018-06-10T05:58:32.597Z,18.80
2018-06-10T06:00:59.805Z,18.90
2018-06-10T06:03:27.020Z,19.00
2018-06-10T06:05:54.237Z,19.00
2018-06-10T06:08:21.456Z,19.10
2018-06-10T06:10:48.919Z,19.10
2018-06-10T06:13:17.003Z,19.20
2018-06-10T06:15:44.171Z,19.30
2018-06-10T06:18:11.392Z,19.40
2018-06-10T06:20:38.798Z,19.40
2018-06-10T06:23:06.022Z,19.50
2018-06-10T06:25:33.268Z,19.60
2018-06-10T06:28:00.485Z,19.70
2018-06-10T06:30:27.843Z,19.70
2018-06-10T06:32:55.053Z,19.70
2018-06-10T06:35:22.268Z,19.70
2018-06-10T06:37:49.481Z,19.50
2018-06-10T06:40:16.701Z,19.60
2018-06-10T06:42:43.921Z,19.60
2018-06-10T06:45:11.140Z,19.80
2018-06-10T06:47:38.366Z,20.00
2018-06-10T06:50:05.628Z,20.20
2018-06-10T06:52:32.855Z,20.50
2018-06-10T06:55:00.087Z,21.30
2018-06-10T06:57:27.347Z,22.90
2018-06-10T06:59:54.574Z,24.10
2018-06-10T07:02:21.833Z,25.30
2018-06-10T07:04:49.071Z,26.10
2018-06-10T07:07:16.284Z,26.60
2018-06-10T07:09:43.833Z,26.60
2018-06-10T07:12:11.726Z,25.90
2018-06-10T07:14:38.948Z,26.10
2018-06-10T07:17:06.188Z,27.60
2018-06-10T07:19:33.419Z,28.40
2018-06-10T07:22:00.699Z,27.90
2018-06-10T07:24:27.914Z,27.00
2018-06-10T07:26:55.134Z,26.30
2018-06-10T07:29:22.358Z,25.20
2018-06-10T07:31:49.594Z,24.40
2018-06-10T07:34:16.804Z,23.80
2018-06-10T07:36:44.040Z,23.30
2018-06-10T07:39:11.265Z,22.90
2018-06-10T07:41:38.489Z,22.60
2018-06-10T07:44:05.781Z,22.60
2018-06-10T07:46:33.004Z,22.60
2018-06-10T07:49:00.216Z,22.80
2018-06-10T07:51:27.448Z,24.00
2018-06-10T07:53:54.673Z,25.60
2018-06-10T07:56:21.898Z,27.00
2018-06-10T07:58:49.120Z,28.20
2018-06-10T08:01:16.344Z,29.10
2018-06-10T08:03:43.587Z,30.40
2018-06-10T08:06:10.858Z,30.40
2018-06-10T08:08:38.085Z,30.30
2018-06-10T08:11:05.431Z,30.20
2018-06-10T08:13:32.663Z,29.00
2018-06-10T08:15:59.889Z,27.80
2018-06-10T08:18:27.128Z,27.00
2018-06-10T08:20:54.353Z,26.40
2018-06-10T08:23:21.590Z,25.50
2018-06-10T08:25:48.820Z,25.30
2018-06-10T08:28:16.076Z,26.80
2018-06-10T08:30:43.301Z,28.30
2018-06-10T08:33:10.541Z,29.00
2018-06-10T08:35:37.785Z,28.90
2018-06-10T08:38:05.019Z,28.30
2018-06-10T08:40:32.243Z,27.70
2018-06-10T08:42:59.484Z,27.00
2018-06-10T08:45:26.711Z,26.30
2018-06-10T08:47:53.950Z,25.90
2018-06-10T08:50:21.173Z,25.60
2018-06-10T08:52:48.405Z,25.30
2018-06-10T08:55:15.640Z,25.20
2018-06-10T08:57:42.889Z,25.20
2018-06-10T09:00:10.134Z,25.90
2018-06-10T09:02:37.364Z,27.00
2018-06-10T09:05:04.628Z,29.30
2018-06-10T09:07:31.859Z,29.40
2018-06-10T09:09:59.104Z,29.10
2018-06-10T09:12:26.342Z,28.20
2018-06-10T09:14:53.698Z,27.50
2018-06-10T09:17:21.068Z,26.70
2018-06-10T09:19:48.301Z,26.10
2018-06-10T09:22:15.552Z,25.80
2018-06-10T09:24:42.788Z,25.30
2018-06-10T09:27:10.015Z,25.40
2018-06-10T09:29:37.249Z,27.00
2018-06-10T09:32:04.546Z,29.10
2018-06-10T09:34:31.799Z,30.70
2018-06-10T09:36:59.020Z,31.70
2018-06-10T09:39:26.236Z,32.40
2018-06-10T09:41:53.456Z,33.00
2018-06-10T09:44:20.669Z,33.40
2018-06-10T09:46:47.884Z,33.80
2018-06-10T09:49:15.117Z,32.90
2018-06-10T09:51:42.341Z,31.80
2018-06-10T09:54:09.583Z,30.80
2018-06-10T09:56:36.805Z,30.60
2018-06-10T09:59:04.051Z,29.30
2018-06-10T10:01:31.280Z,29.80
2018-06-10T10:03:58.489Z,31.40
2018-06-10T10:06:25.736Z,31.60
2018-06-10T10:08:53.093Z,30.80
2018-06-10T10:11:20.266Z,30.00
2018-06-10T10:13:47.501Z,29.70
2018-06-10T10:16:14.722Z,29.20
2018-06-10T10:18:41.931Z,29.10
2018-06-10T10:21:09.157Z,28.80
2018-06-10T10:23:36.370Z,28.20
2018-06-10T10:26:03.604Z,28.10
2018-06-10T10:28:30.819Z,29.30
2018-06-10T10:30:58.054Z,29.90
2018-06-10T10:33:25.349Z,29.40
2018-06-10T10:35:52.570Z,29.60
2018-06-10T10:38:19.834Z,30.10
2018-06-10T10:40:47.069Z,29.90
2018-06-10T10:43:14.289Z,29.60
2018-06-10T10:45:41.507Z,30.00
2018-06-10T10:48:08.712Z,30.70
2018-06-10T10:50:35.930Z,31.50
2018-06-10T10:53:03.160Z,31.90
2018-06-10T10:55:30.374Z,33.20
2018-06-10T10:57:57.608Z,34.00
2018-06-10T11:00:24.835Z,34.00
2018-06-10T11:02:52.052Z,33.40
2018-06-10T11:05:19.269Z,32.20
2018-06-10T11:10:13.843Z,30.40
2018-06-10T11:12:41.074Z,30.00
2018-06-10T11:15:08.292Z,30.30
2018-06-10T11:17:35.527Z,30.20
2018-06-10T11:20:02.790Z,30.60
2018-06-10T11:22:30.022Z,30.10
2018-06-10T11:24:57.242Z,30.70
2018-06-10T11:27:24.534Z,31.50
2018-06-10T11:29:51.718Z,31.30
2018-06-10T11:32:18.952Z,32.30
2018-06-10T11:34:46.166Z,33.00
2018-06-10T11:37:13.381Z,33.50
2018-06-10T11:39:40.615Z,32.30
2018-06-10T11:42:07.842Z,31.20
2018-06-10T11:44:35.055Z,30.30
2018-06-10T11:47:02.285Z,30.00
2018-06-10T11:49:29.504Z,30.20
2018-06-10T11:51:56.807Z,30.80
2018-06-10T11:54:23.961Z,31.40
2018-06-10T11:56:51.201Z,32.20
2018-06-10T11:59:18.442Z,32.70
2018-06-10T12:01:45.664Z,32.30
2018-06-10T12:04:12.893Z,31.50
2018-06-10T12:06:40.121Z,31.10
2018-06-10T12:09:07.514Z,31.70
2018-06-10T12:11:34.854Z,32.10
2018-06-10T12:14:02.136Z,31.60
2018-06-10T12:16:29.389Z,31.40
2018-06-10T12:18:56.633Z,31.10
2018-06-10T12:21:23.911Z,31.00
2018-06-10T12:23:51.132Z,30.70
2018-06-10T12:26:18.392Z,29.20
2018-06-10T12:28:45.649Z,28.60
2018-06-10T12:31:12.870Z,28.20
2018-06-10T12:33:40.146Z,28.00
2018-06-10T12:36:07.400Z,28.40
2018-06-10T12:38:34.623Z,28.70
2018-06-10T12:41:01.977Z,29.00
2018-06-10T12:45:56.417Z,30.70
2018-06-10T12:48:23.650Z,32.10
2018-06-10T12:50:50.882Z,33.10
2018-06-10T12:53:18.101Z,33.20
2018-06-10T12:55:45.304Z,33.30
2018-06-10T12:58:12.537Z,33.40
2018-06-10T13:00:39.917Z,34.60
2018-06-10T13:03:07.137Z,33.90
2018-06-10T13:05:34.360Z,34.40
2018-06-10T13:08:01.600Z,34.80
2018-06-10T13:10:28.884Z,35.00
2018-06-10T13:12:56.114Z,35.30
2018-06-10T13:15:23.330Z,35.00
2018-06-10T13:17:50.592Z,35.00
2018-06-10T13:20:17.804Z,34.80
2018-06-10T13:22:45.037Z,35.40
2018-06-10T13:25:12.286Z,35.40
2018-06-10T13:27:39.624Z,35.50
2018-06-10T13:30:06.754Z,34.10
2018-06-10T13:32:33.979Z,32.10
2018-06-10T13:35:01.193Z,31.00
2018-06-10T13:37:28.418Z,30.10
2018-06-10T13:39:55.692Z,29.40
2018-06-10T13:42:23.022Z,29.50
2018-06-10T13:44:53.376Z,30.40
2018-06-10T13:47:21.105Z,30.80
2018-06-10T13:49:53.515Z,31.70
2018-06-10T13:52:20.769Z,32.40
2018-06-10T13:54:48.269Z,33.60
2018-06-10T13:57:15.764Z,34.00
2018-06-10T13:59:43.043Z,34.00
2018-06-10T14:02:10.272Z,33.50
2018-06-10T14:04:37.601Z,31.60
2018-06-10T14:07:09.492Z,30.80
2018-06-10T14:09:39.749Z,29.60
2018-06-10T14:12:07.487Z,28.60
2018-06-10T14:14:36.776Z,28.00
2018-06-10T14:17:04.819Z,27.50
2018-06-10T14:19:32.838Z,27.30
2018-06-10T14:22:00.080Z,27.10
2018-06-10T14:24:30.406Z,26.80
2018-06-10T14:26:59.348Z,26.50
2018-06-10T14:29:27.461Z,26.40
2018-06-10T14:31:54.690Z,26.40
2018-06-10T14:34:21.951Z,26.40
2018-06-10T14:36:49.194Z,26.60
2018-06-10T14:39:16.613Z,26.70
2018-06-10T14:41:43.995Z,26.80
2018-06-10T14:44:18.269Z,26.90
2018-06-10T14:46:45.648Z,27.00
2018-06-10T14:49:12.908Z,27.20
2018-06-10T14:51:40.172Z,27.20
2018-06-10T14:54:07.481Z,27.20
2018-06-10T14:56:34.741Z,27.60
2018-06-10T14:59:02.292Z,28.20
2018-06-10T15:01:32.771Z,28.40
2018-06-10T15:04:00.069Z,28.60
2018-06-10T15:06:27.358Z,29.10
2018-06-10T15:08:54.599Z,29.90
2018-06-10T15:11:24.807Z,30.30
2018-06-10T15:13:52.065Z,30.20
2018-06-10T15:16:19.305Z,30.50
2018-06-10T15:18:46.586Z,29.90
2018-06-10T15:21:13.797Z,29.70
2018-06-10T15:23:41.033Z,29.50
2018-06-10T15:26:08.345Z,29.50
2018-06-10T15:28:35.620Z,29.90
2018-06-10T15:31:02.915Z,30.00
2018-06-10T15:33:30.162Z,29.90
2018-06-10T15:35:57.452Z,29.60
2018-06-10T15:38:24.689Z,29.90
2018-06-10T15:43:19.229Z,30.20
2018-06-10T15:45:46.480Z,30.60
2018-06-10T15:48:13.712Z,30.40
2018-06-10T15:50:40.968Z,29.80
2018-06-10T15:53:13.136Z,29.20
2018-06-10T15:55:40.532Z,29.20
2018-06-10T15:58:07.776Z,29.10
2018-06-10T16:00:35.101Z,29.20
2018-06-10T16:03:02.337Z,29.10
2018-06-10T16:05:30.051Z,28.80
2018-06-10T16:07:57.280Z,28.70
2018-06-10T16:10:24.777Z,28.60
2018-06-10T16:12:52.004Z,28.60
2018-06-10T16:15:19.322Z,28.80
2018-06-10T16:17:46.631Z,28.90
2018-06-10T16:20:14.082Z,28.60
2018-06-10T16:25:09.130Z,29.30
2018-06-10T16:27:36.360Z,29.80
2018-06-10T16:30:04.417Z,30.60
2018-06-10T16:32:31.667Z,31.40
2018-06-10T16:34:58.974Z,31.90
2018-06-10T16:37:26.334Z,32.70
2018-06-10T16:39:55.678Z,32.90
2018-06-10T16:42:23.342Z,32.60
2018-06-10T16:44:50.668Z,31.90
2018-06-10T16:47:17.892Z,31.40
2018-06-10T16:49:45.380Z,30.10
2018-06-10T16:52:12.823Z,28.50
2018-06-10T16:54:40.229Z,27.20
2018-06-10T16:57:09.475Z,26.20
2018-06-10T16:59:38.070Z,25.40
2018-06-10T17:02:05.361Z,24.80
2018-06-10T17:04:33.384Z,24.40
2018-06-10T17:07:04.680Z,24.10
2018-06-10T17:09:32.206Z,23.70
2018-06-10T17:11:59.521Z,23.40
2018-06-10T17:14:26.730Z,23.10
2018-06-10T17:16:53.968Z,22.80
2018-06-10T17:19:21.372Z,22.70
2018-06-10T17:21:48.718Z,22.60
2018-06-10T17:24:16.123Z,22.50
2018-06-10T17:26:43.384Z,22.50
2018-06-10T17:29:10.648Z,22.60
2018-06-10T17:31:38.528Z,22.60
2018-06-10T17:34:05.855Z,22.70
2018-06-10T17:36:33.113Z,22.80
2018-06-10T17:39:00.380Z,22.90
2018-06-10T17:41:27.621Z,22.90
2018-06-10T17:43:54.864Z,22.90
2018-06-10T17:46:22.117Z,23.00
2018-06-10T17:48:49.453Z,22.90
2018-06-10T17:51:16.669Z,22.90
2018-06-10T17:53:44.298Z,22.90
2018-06-10T17:58:39.369Z,22.90
2018-06-10T18:01:06.614Z,22.90
2018-06-10T18:03:34.294Z,22.90
2018-06-10T18:06:01.562Z,22.90
2018-06-10T18:08:31.802Z,22.70
2018-06-10T18:11:00.191Z,22.60
2018-06-10T18:13:27.437Z,22.50
2018-06-10T18:15:54.683Z,22.50
2018-06-10T18:18:22.004Z,22.40
2018-06-10T18:20:49.438Z,22.30
2018-06-10T18:23:16.704Z,22.20
2018-06-10T18:25:44.100Z,22.20
2018-06-10T18:28:11.357Z,22.10
2018-06-10T18:30:38.625Z,22.00
2018-06-10T18:33:06.670Z,21.90
2018-06-10T18:35:33.914Z,21.80
2018-06-10T18:38:01.172Z,21.70
2018-06-10T18:40:28.463Z,21.70
2018-06-10T18:42:59.753Z,21.60
2018-06-10T18:45:27.073Z,21.60
2018-06-10T18:48:25.534Z,21.40
2018-06-10T18:50:52.776Z,21.40
2018-06-10T18:53:23.325Z,21.40
2018-06-10T18:55:50.649Z,21.40
2018-06-10T18:58:19.496Z,21.40
2018-06-10T19:00:47.299Z,21.40
2018-06-10T19:03:17.915Z,21.40
2018-06-10T19:05:46.754Z,21.40
2018-06-10T19:08:14.167Z,21.30
2018-06-10T19:10:41.566Z,21.30
2018-06-10T19:13:09.201Z,21.30
2018-06-10T19:15:36.452Z,21.30
2018-06-10T19:18:03.725Z,21.20
2018-06-10T19:20:30.971Z,21.20
2018-06-10T19:22:58.197Z,21.20
2018-06-10T19:25:25.468Z,21.20
2018-06-10T19:27:52.944Z,21.20
2018-06-10T19:30:20.210Z,21.10
2018-06-10T19:32:47.479Z,21.10
2018-06-10T19:35:14.802Z,21.10
2018-06-10T19:37:42.464Z,21.10
2018-06-10T19:40:09.702Z,21.00
2018-06-10T19:42:37.081Z,21.00
2018-06-10T19:45:04.542Z,20.90
2018-06-10T19:47:31.769Z,20.90
2018-06-10T19:49:59.296Z,20.90
2018-06-10T19:52:26.529Z,20.90
2018-06-10T19:54:53.766Z,20.80
2018-06-10T19:57:21.089Z,20.70
2018-06-10T20:02:15.525Z,20.60
2018-06-10T20:04:42.752Z,20.60
2018-06-10T20:07:09.980Z,20.50
2018-06-10T20:09:37.205Z,20.50
2018-06-10T20:12:04.465Z,20.40
2018-06-10T20:14:31.792Z,20.30
2018-06-10T20:16:59.029Z,20.20
2018-06-10T20:19:26.253Z,20.20
2018-06-10T20:21:53.515Z,20.20
2018-06-10T20:24:20.737Z,20.20
2018-06-10T20:26:47.976Z,20.10
2018-06-10T20:29:15.265Z,20.10
2018-06-10T20:31:42.485Z,20.00
2018-06-10T20:34:09.731Z,20.00
2018-06-10T20:36:36.993Z,20.10
2018-06-10T20:39:06.517Z,20.20
2018-06-10T20:41:33.761Z,20.10
2018-06-10T20:44:00.981Z,20.10
2018-06-10T20:46:28.205Z,20.00
2018-06-10T20:48:55.425Z,20.00
2018-06-10T20:51:22.681Z,19.90
2018-06-10T20:53:49.924Z,19.80
2018-06-10T20:56:17.148Z,19.70
2018-06-10T20:58:44.415Z,19.60
2018-06-10T21:01:11.641Z,19.60
2018-06-10T21:03:38.852Z,19.50
2018-06-10T21:06:06.076Z,19.50
2018-06-10T21:08:33.330Z,19.40
2018-06-10T21:11:00.611Z,19.40
2018-06-10T21:13:27.844Z,19.50
2018-06-10T21:15:55.068Z,19.40
2018-06-10T21:18:22.288Z,19.40
2018-06-10T21:20:49.496Z,19.40
2018-06-10T21:23:16.728Z,19.40
2018-06-10T21:25:43.949Z,19.40
2018-06-10T21:28:11.177Z,19.40
2018-06-10T21:30:38.396Z,19.40
2018-06-10T21:33:05.634Z,19.20
2018-06-10T21:35:32.858Z,19.00
2018-06-10T21:38:00.067Z,18.90
2018-06-10T21:40:27.290Z,18.90
2018-06-10T21:42:54.503Z,18.80
2018-06-10T21:45:21.716Z,18.70
2018-06-10T21:47:48.928Z,18.70
2018-06-10T21:50:16.158Z,18.60
2018-06-10T21:52:43.377Z,18.60
2018-06-10T21:55:10.600Z,18.70
2018-06-10T21:57:37.840Z,18.70
2018-06-10T22:00:07.078Z,18.70
2018-06-10T22:02:34.335Z,18.70
2018-06-10T22:05:01.617Z,18.70
2018-06-10T22:07:28.840Z,18.70
2018-06-10T22:09:56.113Z,18.70
2018-06-10T22:12:23.569Z,18.80
2018-06-10T22:14:50.834Z,18.90
2018-06-10T22:17:18.093Z,19.00
2018-06-10T22:19:45.313Z,19.00
2018-06-10T22:22:12.548Z,19.10
2018-06-10T22:24:39.765Z,19.10
2018-06-10T22:27:06.980Z,19.10
2018-06-10T22:32:01.477Z,18.80
2018-06-10T22:34:28.645Z,18.80
2018-06-10T22:36:55.876Z,18.80
2018-06-10T22:39:23.089Z,18.70
2018-06-10T22:41:50.334Z,18.70
2018-06-10T22:44:17.557Z,18.70
2018-06-10T22:46:44.786Z,18.60
2018-06-10T22:49:12.097Z,18.60
2018-06-10T22:51:39.339Z,18.50
2018-06-10T22:54:18.096Z,18.40
2018-06-10T22:56:45.331Z,18.40
2018-06-10T22:59:12.565Z,18.50
2018-06-10T23:01:39.808Z,18.50
2018-06-10T23:04:07.022Z,18.50
2018-06-10T23:06:34.256Z,18.50
2018-06-10T23:09:01.509Z,18.50
2018-06-10T23:11:28.738Z,18.50
2018-06-10T23:13:55.965Z,18.50
2018-06-10T23:16:23.197Z,18.40
2018-06-10T23:18:50.452Z,18.40
2018-06-10T23:21:17.677Z,18.40
2018-06-10T23:23:44.889Z,18.30
2018-06-10T23:26:12.103Z,18.20
2018-06-10T23:28:39.331Z,18.20
2018-06-10T23:31:06.545Z,18.20
2018-06-10T23:33:33.778Z,18.10
2018-06-10T23:36:01.028Z,18.00
2018-06-10T23:38:28.244Z,18.00
2018-06-10T23:40:55.469Z,17.90
2018-06-10T23:43:22.725Z,17.80
2018-06-10T23:45:49.933Z,17.70
2018-06-10T23:48:17.161Z,17.70
2018-06-10T23:50:44.373Z,17.60
2018-06-10T23:53:11.603Z,17.50
2018-06-10T23:55:38.820Z,17.50
2018-06-10T23:58:06.201Z,17.40
